Airfield :
LOGIN :

Register | Disclaimer

   EN    FR    IT 

 










Legend :    VFR   Marginal VFR   IFR   Intensive IFR   Very Intensive IFR
Visi :
Ceiling :
>= 8 km
>= 3000ft
5 to 8 km
1000 to 3000 ft
1500m to 5 km
500 to 1000 ft
800 to 1500m
200 to 500 ft
< 800m
< 200 ft
Symbols :   Thunderstorms  Fog  Heavy snow  Heavy precipitations  Wind > 20 kt
SIGMETs :     Misc.  Thunderstorms  Icing  Turbulence  Mountain Waves  Volcanic Ashes






- Airport Elevation : 40 ft
- IATA code : RMI


LIPR - Federico Fellini Int. Rimini

CURRENT METAR :
  • 240620Z 25004KT 9999 -RA SCT035 08/06 Q1006

EXPIRED METARs :
  • 240550Z 25004KT 9999 FEW040 08/06 Q1006
  • 240520Z 26002KT 9999 -RA FEW040 07/06 Q1006
  • 240450Z AUTO VRB01KT 8000 -RA BKN098/// BKN120/// 06/06 Q1006
  • 240420Z AUTO 23003KT 8000 -DZ BKN095/// 06/05 Q1006
  • 240350Z AUTO 25004KT 6000 -DZRA BKN068/// BKN100/// 06/06 Q1006
  • 240320Z AUTO 27006KT 6000 BKN100/// 06/06 Q1006
  • 240250Z AUTO 28007KT 7000 FEW068/// BKN110/// 06/06 Q1006
  • 240220Z AUTO 29005KT 9999 BKN029/// BKN068/// 07/06 Q1006
  • 240150Z AUTO 25003KT 9999 FEW028/// SCT041/// BKN096/// 06/06 Q1006

TAF TAF LIPR
Valid from the 24 at 06:00 until the 25 at 06:00 UTC


240500Z 2406/2506 30008KT 9999 SCT030
TEMPO 2409/2418 SHRA
BECMG 2416/2418 VRB05KT



MET'MAP, your aeronautical weather chart ! - Copyright ORBIFLY December 2007 - Disclaimer

ORBIFLY MET'MAP TEAM :

Programming & Development : Alexandra Zaïnal
Original concept : Baudouin d'Aumeries
Technical & hardware support : Manuel Goepfert
Assistance : Marc-Olivier Méhu




SOURCES & CREDITS :

   NOAA